Time;durP1;ratioP1;P1;durP2;ratioP2;P2;SDS_P1;SDS_P2;PMS_P1;PMS_P2;Temp;Humidity;BMP_temperature;BMP_pressure;BME280_temperature;BME280_humidity;BME280_pressure;Samples;Min_cycle;Max_cycle;Signal;HPM_P1;HPM_P2
2022/07/29 00:00:25;;;;;;;1.83;1.63;;;;;;;19.51;70.70;98372.13;4152546;28;20197;-54
2022/07/29 00:02:27;;;;;;;2.50;2.10;;;;;;;19.48;70.92;98369.13;4151503;28;20283;-55
2022/07/29 00:04:29;;;;;;;1.70;1.60;;;;;;;19.44;71.03;98362.59;4150900;28;20694;-54
2022/07/29 00:06:31;;;;;;;1.60;1.50;;;;;;;19.43;70.83;98366.47;4153370;28;20234;-54
2022/07/29 00:08:33;;;;;;;2.20;2.00;;;;;;;19.42;71.09;98359.28;4134098;28;20643;-54
2022/07/29 00:10:35;;;;;;;2.97;1.80;;;;;;;19.36;71.33;98354.97;4156625;28;20205;-55
2022/07/29 00:12:36;;;;;;;2.75;2.05;;;;;;;19.37;71.30;98362.19;4157637;28;20220;-54
2022/07/29 00:14:38;;;;;;;2.45;2.25;;;;;;;19.36;71.04;98357.75;4151059;28;20209;-57
2022/07/29 00:16:40;;;;;;;3.78;1.73;;;;;;;19.38;70.80;98352.72;4158075;28;20219;-54
2022/07/29 00:18:42;;;;;;;1.48;1.38;;;;;;;19.36;70.75;98357.75;4158444;28;20217;-56
2022/07/29 00:20:43;;;;;;;4.18;1.80;;;;;;;19.31;70.85;98353.13;4151137;28;20243;-56
2022/07/29 00:22:45;;;;;;;2.70;1.63;;;;;;;19.31;70.63;98346.78;4156374;28;20209;-55
2022/07/29 00:24:48;;;;;;;1.70;1.45;;;;;;;19.31;70.71;98341.22;4151211;28;20197;-57
2022/07/29 00:26:50;;;;;;;2.45;1.50;;;;;;;19.31;70.49;98346.78;4149955;28;20205;-56
2022/07/29 00:28:51;;;;;;;1.73;1.63;;;;;;;19.32;70.67;98348.41;4151441;28;20194;-57
2022/07/29 00:31:14;;;;;;;2.38;2.15;;;;;;;19.29;71.13;98349.00;4140684;28;20233;-56
2022/07/29 00:33:16;;;;;;;1.63;1.52;;;;;;;19.25;71.62;98343.25;4154829;28;20209;-55
2022/07/29 00:37:38;;;;;;;2.33;1.90;;;;;;;19.19;71.83;98343.66;4153814;28;20204;-56
2022/07/29 00:39:40;;;;;;;1.42;1.33;;;;;;;19.18;71.72;98342.03;4158374;28;20669;-56
2022/07/29 00:41:42;;;;;;;2.00;1.88;;;;;;;19.12;72.29;98337.72;4150895;28;20650;-56
2022/07/29 00:43:44;;;;;;;2.22;1.75;;;;;;;19.06;72.48;98331.41;4151753;28;20205;-57
2022/07/29 00:45:45;;;;;;;1.98;1.80;;;;;;;19.05;72.23;98331.75;4147760;28;20679;-56
2022/07/29 00:47:47;;;;;;;3.20;1.73;;;;;;;19.05;72.22;98331.75;4157270;28;20201;-54
2022/07/29 00:49:49;;;;;;;3.33;1.95;;;;;;;19.06;72.20;98330.63;4156682;28;20726;-56
2022/07/29 00:51:51;;;;;;;2.00;1.80;;;;;;;19.06;72.59;98328.66;4148155;28;20261;-57
2022/07/29 00:53:53;;;;;;;2.00;1.58;;;;;;;19.00;72.74;98329.06;4152922;28;20682;-56
2022/07/29 00:55:55;;;;;;;2.63;2.40;;;;;;;18.92;72.80;98327.03;4166875;28;20200;-55
2022/07/29 00:57:58;;;;;;;3.80;2.28;;;;;;;18.89;73.07;98333.19;4151996;28;20334;-56
2022/07/29 00:59:59;;;;;;;1.75;1.65;;;;;;;18.86;73.23;98325.50;4148798;28;20208;-55
2022/07/29 01:02:04;;;;;;;2.78;2.20;;;;;;;18.83;73.24;98324.16;4148431;28;20775;-55
2022/07/29 01:04:07;;;;;;;1.70;1.60;;;;;;;18.82;73.21;98333.59;4153152;28;20208;-55
2022/07/29 01:06:09;;;;;;;3.22;1.83;;;;;;;18.83;72.82;98331.63;4164973;28;20262;-56
2022/07/29 01:08:15;;;;;;;2.38;2.17;;;;;;;18.81;72.92;98331.13;4168401;28;20225;-57
2022/07/29 01:10:18;;;;;;;2.10;1.88;;;;;;;18.77;72.78;98330.91;4150721;28;20221;-56
2022/07/29 01:12:25;;;;;;;2.65;2.45;;;;;;;18.72;73.57;98327.44;4153163;28;20205;-56
2022/07/29 01:14:28;;;;;;;2.47;2.28;;;;;;;18.67;73.40;98330.28;4152934;28;20207;-54
2022/07/29 01:16:39;;;;;;;2.22;2.13;;;;;;;18.60;73.74;98330.72;4166631;28;20258;-56
2022/07/29 01:18:44;;;;;;;2.20;2.03;;;;;;;18.53;74.01;98323.91;4151146;28;20255;-55
2022/07/29 01:21:14;;;;;;;2.45;1.60;;;;;;;18.47;74.17;98319.59;4136889;28;20225;-55
2022/07/29 01:23:45;;;;;;;2.35;2.15;;;;;;;18.46;74.04;98317.97;4166977;28;20212;-55
2022/07/29 01:26:18;;;;;;;2.00;1.90;;;;;;;18.43;73.92;98324.09;4152438;28;20202;-55
2022/07/29 01:28:40;;;;;;;4.07;1.95;;;;;;;18.40;74.46;98330.25;4150177;28;20231;-55
2022/07/29 01:30:44;;;;;;;2.58;1.90;;;;;;;18.38;74.33;98326.97;4143410;28;20665;-57
2022/07/29 01:32:47;;;;;;;2.58;1.90;;;;;;;18.36;74.33;98323.66;4141200;28;20219;-57
2022/07/29 01:35:15;;;;;;;2.33;2.17;;;;;;;18.32;74.38;98317.91;4156124;28;20212;-56
2022/07/29 01:37:32;;;;;;;2.30;2.10;;;;;;;18.27;74.68;98325.47;4148055;28;20205;-56
2022/07/29 01:39:36;;;;;;;2.05;1.83;;;;;;;18.24;74.78;98320.56;4148017;28;22026;-56
2022/07/29 01:41:49;;;;;;;2.20;2.05;;;;;;;18.20;74.56;98319.50;4147009;28;20315;-56
2022/07/29 01:43:58;;;;;;;4.05;2.17;;;;;;;18.17;74.86;98323.69;4143222;28;20208;-57
2022/07/29 01:46:03;;;;;;;3.42;3.13;;;;;;;18.11;75.32;98327.69;4148315;28;20259;-57
2022/07/29 01:48:12;;;;;;;2.55;2.35;;;;;;;18.09;74.96;98323.56;4143959;28;20209;-57
2022/07/29 01:50:16;;;;;;;4.35;2.40;;;;;;;18.05;74.96;98322.56;4147043;28;20275;-56
2022/07/29 01:52:31;;;;;;;2.17;1.90;;;;;;;18.05;74.86;98317.00;4144287;28;20292;-55
2022/07/29 01:54:45;;;;;;;2.17;2.08;;;;;;;18.03;74.78;98324.78;4142393;28;20236;-56
2022/07/29 01:56:50;;;;;;;2.17;1.95;;;;;;;18.01;74.87;98321.50;4155008;28;20208;-56
2022/07/29 01:58:52;;;;;;;3.45;2.80;;;;;;;18.01;74.48;98321.50;4151851;28;20251;-56
2022/07/29 02:00:56;;;;;;;2.55;2.35;;;;;;;17.97;74.76;98317.69;4149965;28;20221;-55
2022/07/29 02:03:02;;;;;;;2.10;1.80;;;;;;;17.93;74.82;98324.97;4149657;28;20753;-57
2022/07/29 02:05:06;;;;;;;2.75;2.50;;;;;;;17.89;74.60;98329.44;4135587;28;20202;-56
2022/07/29 02:07:10;;;;;;;3.10;2.13;;;;;;;17.90;74.18;98325.53;4147448;28;20212;-56
2022/07/29 02:09:13;;;;;;;2.33;2.13;;;;;;;17.87;74.11;98327.00;4152734;28;20251;-56
2022/07/29 02:11:15;;;;;;;1.98;1.77;;;;;;;17.89;74.21;98323.91;4154634;28;21354;-57
2022/07/29 02:13:18;;;;;;;2.42;2.22;;;;;;;17.87;74.29;98321.47;4167155;28;20208;-55
2022/07/29 02:15:20;;;;;;;2.45;2.25;;;;;;;17.86;74.83;98324.53;4152251;28;20236;-56
2022/07/29 02:17:27;;;;;;;2.60;2.40;;;;;;;17.81;74.69;98317.13;4161810;28;20208;-55
2022/07/29 02:19:31;;;;;;;2.50;1.95;;;;;;;17.80;74.56;98326.53;4159431;28;20742;-55
2022/07/29 02:21:33;;;;;;;2.42;2.22;;;;;;;17.77;74.82;98321.59;4156695;28;20247;-56
2022/07/29 02:23:35;;;;;;;2.55;2.15;;;;;;;17.73;74.69;98319.75;4153584;28;20268;-54
2022/07/29 02:25:55;;;;;;;8.02;2.10;;;;;;;17.75;74.70;98328.56;4153718;28;21176;-57
2022/07/29 02:27:58;;;;;;;4.28;2.70;;;;;;;17.74;74.63;98321.38;4154539;28;20200;-55
2022/07/29 02:30:02;;;;;;;2.10;2.00;;;;;;;17.74;74.79;98327.75;4156544;28;20586;-55
2022/07/29 02:32:05;;;;;;;2.28;2.08;;;;;;;17.71;75.21;98330.31;4154113;28;20705;-56
2022/07/29 02:34:08;;;;;;;2.47;2.28;;;;;;;17.65;75.03;98325.97;4154761;28;20209;-56
2022/07/29 02:36:10;;;;;;;4.43;4.03;;;;;;;17.59;75.43;98327.16;4155078;28;20236;-57
2022/07/29 02:40:36;;;;;;;2.13;1.92;;;;;;;17.52;75.85;98333.06;4153121;28;20618;-55
2022/07/29 02:42:38;;;;;;;2.30;2.10;;;;;;;17.50;76.19;98328.94;4156850;28;20613;-57
2022/07/29 02:44:41;;;;;;;2.78;2.30;;;;;;;17.51;75.60;98327.84;4140733;28;20212;-57
2022/07/29 02:47:02;;;;;;;3.05;1.95;;;;;;;17.49;76.02;98321.78;4152431;28;20329;-57
2022/07/29 02:49:13;;;;;;;2.55;1.90;;;;;;;17.47;75.83;98324.03;4149276;28;20209;-56
2022/07/29 02:51:23;;;;;;;2.65;2.35;;;;;;;17.45;75.79;98329.03;4157916;28;20232;-57
2022/07/29 02:53:49;;;;;;;2.97;2.47;;;;;;;17.43;75.97;98325.72;4154259;28;20855;-56
2022/07/29 02:55:59;;;;;;;3.15;2.10;;;;;;;17.41;75.94;98336.28;4153617;28;20209;-56
2022/07/29 02:58:03;;;;;;;3.17;2.33;;;;;;;17.43;75.93;98331.25;4166350;28;20211;-57
2022/07/29 03:00:08;;;;;;;2.38;2.17;;;;;;;17.38;75.81;98332.16;4137327;28;20739;-57
2022/07/29 03:02:11;;;;;;;2.70;2.50;;;;;;;17.38;75.68;98336.88;4153596;28;20231;-57
2022/07/29 03:04:14;;;;;;;2.25;2.05;;;;;;;17.33;75.83;98336.91;4139721;28;20205;-56
2022/07/29 03:06:17;;;;;;;2.80;2.60;;;;;;;17.28;75.88;98336.97;4156572;28;20216;-57
2022/07/29 03:08:39;;;;;;;2.15;1.80;;;;;;;17.26;76.33;98330.94;4158770;28;21170;-56
2022/07/29 03:10:44;;;;;;;3.20;2.53;;;;;;;17.23;76.49;98337.03;4159834;28;20229;-56
2022/07/29 03:12:46;;;;;;;3.60;2.30;;;;;;;17.20;76.43;98332.13;4155634;28;20726;-56
2022/07/29 03:14:48;;;;;;;6.63;2.50;;;;;;;17.20;76.70;98337.66;4161823;28;20201;-56
2022/07/29 03:16:50;;;;;;;2.72;2.53;;;;;;;17.18;76.53;98335.16;4160103;28;20212;-56
2022/07/29 03:18:53;;;;;;;2.40;2.20;;;;;;;17.20;76.08;98340.41;4141782;28;20209;-56
2022/07/29 03:20:55;;;;;;;2.60;2.40;;;;;;;17.19;76.17;98344.31;4153654;28;20271;-56
2022/07/29 03:22:56;;;;;;;3.42;3.13;;;;;;;17.19;76.26;98338.78;4151308;28;20900;-56
2022/07/29 03:25:07;;;;;;;2.40;2.20;;;;;;;17.20;76.41;98337.66;4155720;28;20201;-55
2022/07/29 03:27:09;;;;;;;2.65;2.45;;;;;;;17.19;76.77;98341.53;4151386;28;20968;-57
2022/07/29 03:29:11;;;;;;;2.83;2.63;;;;;;;17.13;76.84;98337.19;4134555;28;20757;-57
2022/07/29 03:31:14;;;;;;;2.78;2.58;;;;;;;17.09;76.90;98336.13;4151178;28;20275;-57
2022/07/29 03:33:16;;;;;;;3.53;3.00;;;;;;;17.08;76.97;98339.22;4157833;28;20209;-55
2022/07/29 03:35:21;;;;;;;2.97;2.17;;;;;;;17.08;76.74;98332.56;4136910;28;20595;-54
2022/07/29 03:37:23;;;;;;;4.47;2.63;;;;;;;17.11;76.78;98339.44;4152859;28;20703;-56
2022/07/29 03:39:29;;;;;;;2.88;2.63;;;;;;;17.08;77.02;98335.31;4158925;28;20764;-54
2022/07/29 03:41:31;;;;;;;2.90;2.50;;;;;;;17.06;77.08;98333.97;4151609;28;20225;-54
2022/07/29 03:43:37;;;;;;;2.83;2.63;;;;;;;17.06;76.96;98333.97;4157205;28;20728;-55
2022/07/29 03:45:51;;;;;;;2.35;2.00;;;;;;;17.05;77.02;98340.63;4156948;28;20205;-56
2022/07/29 03:47:57;;;;;;;3.22;2.70;;;;;;;17.06;76.70;98342.25;4159560;28;20250;-54
2022/07/29 03:50:06;;;;;;;2.67;2.38;;;;;;;17.08;76.99;98340.00;4149825;28;20311;-56
2022/07/29 03:52:11;;;;;;;4.85;2.28;;;;;;;17.10;77.10;98337.75;4152357;28;20232;-57
2022/07/29 03:54:13;;;;;;;2.60;2.40;;;;;;;17.12;76.71;98341.09;4166527;28;20205;-56
2022/07/29 03:56:17;;;;;;;2.83;2.53;;;;;;;17.13;76.92;98348.25;4156122;28;20259;-56
2022/07/29 03:58:19;;;;;;;2.97;2.55;;;;;;;17.11;76.86;98340.25;4167614;28;20263;-55
2022/07/29 04:00:22;;;;;;;2.30;2.10;;;;;;;17.10;76.89;98335.00;4156895;28;20222;-56
2022/07/29 04:02:25;;;;;;;9.82;2.58;;;;;;;17.08;76.81;98333.69;4157047;28;20208;-56
2022/07/29 04:04:35;;;;;;;1.85;1.75;;;;;;;17.04;77.05;98344.47;4152666;28;20223;-57
2022/07/29 04:06:43;;;;;;;3.65;1.95;;;;;;;17.02;77.25;98342.03;4165250;28;20259;-56
2022/07/29 04:08:46;;;;;;;5.55;2.88;;;;;;;16.98;76.84;98343.72;4154997;28;20579;-56
2022/07/29 04:10:48;;;;;;;5.95;1.98;;;;;;;16.96;77.42;98336.84;4153764;28;20228;-57
2022/07/29 04:12:50;;;;;;;3.30;3.00;;;;;;;16.93;77.29;98341.03;4152391;28;20621;-56
2022/07/29 04:14:51;;;;;;;3.22;2.97;;;;;;;16.89;77.13;98341.91;4157683;28;20208;-55
2022/07/29 04:16:53;;;;;;;2.47;2.28;;;;;;;16.87;77.22;98349.69;4154922;28;20760;-55
2022/07/29 04:18:55;;;;;;;3.33;3.10;;;;;;;16.85;77.80;98351.09;4137756;28;20197;-55
2022/07/29 04:21:00;;;;;;;3.33;3.05;;;;;;;16.92;78.02;98344.91;4154645;28;20228;-55
2022/07/29 04:23:02;;;;;;;3.10;2.80;;;;;;;16.82;78.34;98352.50;4152808;28;20246;-56
2022/07/29 04:25:04;;;;;;;3.50;3.20;;;;;;;16.80;78.58;98349.22;4151709;28;20205;-57
2022/07/29 04:27:06;;;;;;;4.00;2.47;;;;;;;16.82;78.45;98351.69;4152717;28;20208;-55
2022/07/29 04:29:08;;;;;;;3.03;2.72;;;;;;;16.84;78.24;98349.44;4153058;28;20315;-55
2022/07/29 04:31:10;;;;;;;3.10;2.85;;;;;;;16.83;77.62;98358.88;4158335;28;20677;-56
2022/07/29 04:33:12;;;;;;;4.43;2.85;;;;;;;16.81;78.09;98356.38;4150671;28;20695;-57
2022/07/29 04:35:14;;;;;;;3.20;3.00;;;;;;;16.82;78.19;98351.69;4158578;28;20644;-57
2022/07/29 04:37:15;;;;;;;2.75;2.47;;;;;;;16.80;77.98;98360.28;4151952;28;20618;-56
2022/07/29 04:39:18;;;;;;;3.35;3.15;;;;;;;16.76;78.24;98359.19;4151987;28;20219;-57
2022/07/29 04:41:23;;;;;;;3.13;2.90;;;;;;;16.82;78.26;98374.59;4149825;28;20352;-57
2022/07/29 04:43:35;;;;;;;2.70;2.20;;;;;;;16.86;78.13;98386.75;4141537;28;20734;-57
2022/07/29 04:45:37;;;;;;;3.42;2.53;;;;;;;16.77;79.35;98387.66;4135372;28;21048;-57
2022/07/29 04:47:39;;;;;;;4.50;3.15;;;;;;;16.67;80.22;98377.53;4153880;28;20215;-57
2022/07/29 04:49:40;;;;;;;5.38;3.50;;;;;;;16.52;81.76;98391.53;4164292;28;20208;-54
2022/07/29 04:51:42;;;;;;;3.75;3.47;;;;;;;16.54;81.52;98382.91;4154246;28;20306;-56
2022/07/29 04:53:44;;;;;;;5.45;2.95;;;;;;;16.62;80.85;98380.34;4151926;28;20283;-57
2022/07/29 04:55:46;;;;;;;3.40;2.70;;;;;;;16.68;80.13;98379.19;4148315;28;20699;-57
2022/07/29 04:57:47;;;;;;;3.92;2.58;;;;;;;16.77;80.02;98377.41;4151987;28;20300;-57
2022/07/29 04:59:49;;;;;;;4.75;3.35;;;;;;;16.83;79.61;98379.00;4151179;28;20213;-56
2022/07/29 05:01:51;;;;;;;3.03;2.83;;;;;;;16.90;79.45;98381.44;4165871;28;20228;-56
2022/07/29 05:03:52;;;;;;;2.80;2.60;;;;;;;16.96;79.09;98380.28;4163744;28;20635;-57
2022/07/29 05:06:00;;;;;;;3.25;3.03;;;;;;;17.02;78.95;98385.44;4148206;28;20200;-57
2022/07/29 05:08:03;;;;;;;4.03;2.72;;;;;;;17.05;78.80;98376.56;4151232;28;20205;-57
2022/07/29 05:10:05;;;;;;;3.50;3.20;;;;;;;17.12;78.57;98385.31;4153306;28;20624;-56
2022/07/29 05:12:07;;;;;;;3.42;3.13;;;;;;;17.14;78.78;98378.38;4157582;28;20263;-54
2022/07/29 05:14:09;;;;;;;3.25;2.95;;;;;;;17.17;78.61;98385.25;4158708;28;20262;-55
2022/07/29 05:16:10;;;;;;;3.13;2.92;;;;;;;17.20;78.27;98381.91;4154268;28;20205;-54
2022/07/29 05:18:12;;;;;;;3.15;2.85;;;;;;;17.25;78.43;98387.38;4151080;28;20212;-55
2022/07/29 05:20:14;;;;;;;3.03;2.72;;;;;;;17.25;78.20;98379.06;4137319;28;20210;-55
2022/07/29 05:22:16;;;;;;;4.05;3.05;;;;;;;17.29;78.16;98375.41;4152220;28;20589;-55
2022/07/29 05:24:17;;;;;;;3.80;3.25;;;;;;;17.33;78.17;98370.13;4151288;28;20201;-56
2022/07/29 05:26:20;;;;;;;3.45;3.05;;;;;;;17.37;78.04;98374.78;4134360;28;20202;-55
2022/07/29 05:28:22;;;;;;;3.45;3.15;;;;;;;17.41;77.99;98378.63;4160703;28;20235;-55
2022/07/29 05:30:24;;;;;;;3.38;2.70;;;;;;;17.42;78.02;98377.50;4168044;28;20223;-54
2022/07/29 05:32:26;;;;;;;2.88;2.67;;;;;;;17.47;78.03;98368.28;4160356;28;20528;-55
2022/07/29 05:34:31;;;;;;;3.05;2.75;;;;;;;17.52;78.16;98373.75;4150953;28;20702;-56
2022/07/29 05:36:33;;;;;;;2.75;2.55;;;;;;;17.60;78.04;98373.09;4158625;28;20217;-55
2022/07/29 05:38:35;;;;;;;3.67;3.13;;;;;;;17.67;78.46;98374.38;4157466;28;20209;-55
2022/07/29 05:40:37;;;;;;;4.15;3.75;;;;;;;17.81;80.04;98377.19;4160978;28;20229;-53
2022/07/29 05:42:39;;;;;;;3.97;3.65;;;;;;;17.94;80.35;98376.44;4159951;28;20213;-57
2022/07/29 05:44:41;;;;;;;4.20;3.90;;;;;;;18.16;80.53;98373.84;4160688;28;20294;-55
2022/07/29 05:46:42;;;;;;;3.70;3.40;;;;;;;18.32;79.16;98372.53;4160501;28;20259;-56
2022/07/29 05:48:45;;;;;;;6.72;4.05;;;;;;;18.46;78.44;98378.94;4159520;28;20209;-56
2022/07/29 05:50:47;;;;;;;3.55;3.33;;;;;;;18.64;77.99;98387.16;4159038;28;20225;-56
2022/07/29 05:52:48;;;;;;;4.78;4.28;;;;;;;18.60;77.46;98380.63;4162167;28;20623;-56
2022/07/29 05:54:51;;;;;;;7.10;4.15;;;;;;;18.54;76.94;98381.81;4172057;28;20248;-56
2022/07/29 05:56:52;;;;;;;4.05;3.85;;;;;;;18.45;77.13;98375.31;4171986;28;20690;-55
2022/07/29 05:58:54;;;;;;;4.05;3.60;;;;;;;18.21;77.33;98376.56;4156795;28;20214;-56
2022/07/29 06:00:59;;;;;;;3.83;3.50;;;;;;;18.18;77.49;98379.94;4141697;28;20233;-55
2022/07/29 06:03:01;;;;;;;3.38;3.08;;;;;;;18.00;78.59;98376.06;4159493;28;20204;-56
2022/07/29 06:05:03;;;;;;;4.55;3.58;;;;;;;17.96;78.89;98397.16;4153052;28;20647;-56
2022/07/29 06:07:06;;;;;;;3.88;3.45;;;;;;;18.08;79.58;98393.94;4137420;28;20217;-55
2022/07/29 06:09:08;;;;;;;4.72;3.15;;;;;;;18.22;79.78;98389.28;4158790;28;20205;-56
2022/07/29 06:11:13;;;;;;;3.67;3.38;;;;;;;18.24;78.64;98389.81;4170007;28;20224;-55
2022/07/29 06:13:15;;;;;;;4.55;4.05;;;;;;;18.30;77.97;98386.69;4154473;28;20262;-55
2022/07/29 06:15:17;;;;;;;6.88;4.68;;;;;;;18.53;78.94;98393.22;4156984;28;20212;-56
2022/07/29 06:17:19;;;;;;;6.15;3.75;;;;;;;18.60;77.70;98396.41;4151273;28;20214;-57
2022/07/29 06:19:21;;;;;;;3.22;2.92;;;;;;;18.82;77.17;98399.31;4152306;28;20250;-57
2022/07/29 06:21:22;;;;;;;4.50;3.80;;;;;;;18.92;77.35;98399.13;4143126;28;20347;-55
2022/07/29 06:23:24;;;;;;;4.68;4.07;;;;;;;18.79;75.91;98389.66;4156648;28;20264;-54
2022/07/29 06:25:30;;;;;;;4.60;4.20;;;;;;;19.12;76.73;98409.84;4152516;28;20219;-54
2022/07/29 06:27:31;;;;;;;3.15;2.92;;;;;;;19.32;75.46;98398.38;4153535;28;20255;-55
2022/07/29 06:29:33;;;;;;;3.38;2.83;;;;;;;19.36;74.23;98402.16;4150700;28;21110;-57
2022/07/29 06:31:35;;;;;;;3.20;3.00;;;;;;;19.49;74.01;98398.53;4151016;28;20307;-56
2022/07/29 06:33:36;;;;;;;3.75;3.33;;;;;;;19.57;73.05;98406.16;4153916;28;20243;-56
2022/07/29 06:35:39;;;;;;;3.03;2.63;;;;;;;19.82;72.36;98409.19;4137318;28;20233;-55
2022/07/29 06:37:43;;;;;;;2.97;2.65;;;;;;;19.99;71.88;98408.53;4156772;28;20715;-54
2022/07/29 06:39:47;;;;;;;2.95;2.72;;;;;;;20.14;71.32;98405.41;4156050;28;20578;-56
2022/07/29 06:41:50;;;;;;;4.70;3.13;;;;;;;20.24;70.96;98410.75;4159174;28;20682;-56
2022/07/29 06:43:52;;;;;;;3.13;2.92;;;;;;;20.46;70.21;98417.13;4160075;28;20208;-56
2022/07/29 06:46:19;;;;;;;2.80;2.38;;;;;;;20.54;70.02;98415.53;4152120;28;20578;-55
2022/07/29 06:48:21;;;;;;;2.85;2.53;;;;;;;20.59;68.53;98420.97;4159894;28;21041;-56
2022/07/29 06:50:23;;;;;;;2.22;1.95;;;;;;;20.75;68.89;98422.22;4155480;28;20211;-55
2022/07/29 06:52:25;;;;;;;4.70;2.85;;;;;;;20.97;68.25;98425.81;4152813;28;20212;-54
2022/07/29 06:54:27;;;;;;;3.92;1.90;;;;;;;21.00;65.90;98427.97;4167670;28;20207;-54
2022/07/29 06:56:33;;;;;;;1.77;1.67;;;;;;;20.93;66.05;98419.25;4161883;28;20639;-56
2022/07/29 06:58:40;;;;;;;2.90;2.03;;;;;;;20.83;65.89;98427.00;4154631;28;20212;-55
2022/07/29 07:00:42;;;;;;;2.45;2.08;;;;;;;20.77;66.87;98431.06;4155643;28;20750;-56
2022/07/29 07:02:44;;;;;;;3.03;2.13;;;;;;;20.82;67.11;98430.91;4137535;28;20206;-54
2022/07/29 07:04:48;;;;;;;2.55;2.00;;;;;;;20.81;66.88;98427.34;4153988;28;20298;-54
2022/07/29 07:06:50;;;;;;;4.07;1.92;;;;;;;20.90;67.02;98424.66;4156393;28;20204;-56
2022/07/29 07:08:52;;;;;;;7.82;1.88;;;;;;;20.94;66.32;98426.47;4153130;28;20593;-56
2022/07/29 07:10:54;;;;;;;4.18;1.70;;;;;;;21.12;66.18;98427.38;4157361;28;20604;-55
2022/07/29 07:12:56;;;;;;;2.67;2.00;;;;;;;21.32;65.88;98426.81;4152582;28;20204;-56
2022/07/29 07:14:58;;;;;;;4.15;2.45;;;;;;;21.41;65.50;98436.84;4153540;28;20267;-56
2022/07/29 07:17:00;;;;;;;4.03;1.77;;;;;;;21.36;63.57;98434.19;4159609;28;20223;-55
2022/07/29 07:19:04;;;;;;;2.40;2.20;;;;;;;21.32;62.61;98435.97;4156837;28;20789;-57
2022/07/29 07:21:06;;;;;;;4.38;1.90;;;;;;;21.57;63.87;98440.00;4152613;28;20679;-55
2022/07/29 07:23:08;;;;;;;1.95;1.73;;;;;;;21.95;63.03;98444.72;4167851;28;20203;-55
2022/07/29 07:25:10;;;;;;;7.68;1.88;;;;;;;22.18;61.77;98446.19;4154379;28;20204;-55
2022/07/29 07:27:12;;;;;;;8.00;1.83;;;;;;;22.50;60.27;98448.53;4157806;28;20654;-56
2022/07/29 07:29:14;;;;;;;7.30;1.35;;;;;;;22.67;59.32;98442.97;4156599;28;20207;-56
2022/07/29 07:31:16;;;;;;;5.13;1.73;;;;;;;22.85;58.73;98447.34;4154005;28;20307;-54
2022/07/29 07:33:18;;;;;;;2.35;2.05;;;;;;;22.71;58.33;98438.34;4153254;28;20290;-56
2022/07/29 07:35:20;;;;;;;4.53;1.58;;;;;;;22.50;56.93;98442.16;4151602;28;20290;-55
2022/07/29 07:37:21;;;;;;;2.08;1.25;;;;;;;22.27;58.49;98444.25;4160166;28;20208;-56
2022/07/29 07:39:23;;;;;;;2.85;1.58;;;;;;;22.20;57.36;98437.53;4157965;28;20331;-56
2022/07/29 07:41:25;;;;;;;2.00;1.45;;;;;;;22.23;57.88;98437.69;4167715;28;20582;-55
2022/07/29 07:43:33;;;;;;;1.80;1.50;;;;;;;22.27;57.91;98437.84;4153219;28;20208;-55
2022/07/29 07:45:36;;;;;;;6.38;1.80;;;;;;;22.33;58.33;98433.75;4152414;28;20644;-56
2022/07/29 07:47:39;;;;;;;2.95;1.30;;;;;;;22.36;58.41;98435.88;4158871;28;20208;-56
2022/07/29 07:49:42;;;;;;;3.58;1.60;;;;;;;22.41;58.66;98439.34;4138184;28;20259;-55
2022/07/29 07:51:45;;;;;;;1.70;1.33;;;;;;;22.27;58.51;98435.06;4153592;28;20255;-54
2022/07/29 07:53:51;;;;;;;7.50;1.55;;;;;;;22.11;59.84;98440.28;4154296;28;20200;-55
2022/07/29 07:55:54;;;;;;;2.67;1.95;;;;;;;22.10;59.44;98449.00;4158429;28;20212;-56
2022/07/29 07:58:13;;;;;;;3.97;1.67;;;;;;;22.11;60.36;98450.66;4166456;28;20240;-55
2022/07/29 08:00:16;;;;;;;2.45;1.50;;;;;;;22.14;60.26;98445.25;4151474;28;20216;-55
2022/07/29 08:02:18;;;;;;;9.05;1.77;;;;;;;22.35;60.21;98456.56;4153736;28;20278;-55
2022/07/29 08:04:20;;;;;;;5.70;1.67;;;;;;;22.49;57.25;98451.66;4154305;28;20670;-54
2022/07/29 08:06:28;;;;;;;11.15;2.20;;;;;;;22.24;56.02;98449.69;4152643;28;20215;-56
2022/07/29 08:08:33;;;;;;;3.15;1.50;;;;;;;22.26;55.85;98447.38;4153997;28;20243;-54
2022/07/29 08:10:53;;;;;;;2.60;1.90;;;;;;;22.39;58.15;98451.97;4142939;28;20207;-55
2022/07/29 08:12:55;;;;;;;6.18;1.90;;;;;;;22.86;57.39;98453.75;4169710;28;20219;-54
2022/07/29 08:14:57;;;;;;;11.38;1.92;;;;;;;23.06;57.42;98450.28;4155610;28;20201;-56
2022/07/29 08:16:59;;;;;;;3.22;1.90;;;;;;;23.42;57.00;98453.47;4154052;28;20204;-54
2022/07/29 08:19:04;;;;;;;4.35;2.10;;;;;;;23.67;57.42;98450.56;4154764;28;20200;-55
2022/07/29 08:21:06;;;;;;;5.20;2.15;;;;;;;23.79;56.48;98447.88;4132903;28;20315;-54
2022/07/29 08:23:10;;;;;;;4.35;1.70;;;;;;;23.74;56.12;98451.66;4153421;28;20283;-54
2022/07/29 08:25:12;;;;;;;4.53;1.80;;;;;;;23.67;54.50;98449.72;4168149;28;20658;-56
2022/07/29 08:27:17;;;;;;;4.22;2.25;;;;;;;23.78;53.45;98449.84;4160270;28;20208;-55
2022/07/29 08:29:39;;;;;;;4.53;2.10;;;;;;;23.75;53.53;98449.69;4166886;28;20230;-54
2022/07/29 08:31:41;;;;;;;3.80;1.70;;;;;;;23.81;54.34;98446.34;4153225;28;20241;-54
2022/07/29 08:33:43;;;;;;;2.33;1.92;;;;;;;24.15;54.03;98446.19;4152879;28;20760;-55
2022/07/29 08:35:45;;;;;;;3.28;1.63;;;;;;;24.65;54.20;98452.56;4150252;28;20200;-55
2022/07/29 08:37:47;;;;;;;8.98;2.25;;;;;;;24.55;52.52;98455.75;4152348;28;20265;-56
2022/07/29 08:39:49;;;;;;;3.90;1.67;;;;;;;24.72;53.62;98458.41;4153303;28;20348;-56
2022/07/29 08:41:52;;;;;;;2.05;1.85;;;;;;;25.18;53.44;98458.13;4153251;28;20216;-55
2022/07/29 08:43:58;;;;;;;6.50;1.85;;;;;;;25.07;53.50;98454.09;4158036;28;20208;-54
2022/07/29 08:46:00;;;;;;;3.53;1.50;;;;;;;25.49;53.25;98452.84;4156384;28;20204;-55
2022/07/29 08:48:02;;;;;;;4.22;2.22;;;;;;;25.69;51.06;98457.53;4152102;28;20200;-55
2022/07/29 08:50:04;;;;;;;2.33;2.08;;;;;;;25.22;51.12;98459.06;4152335;28;20250;-54
2022/07/29 08:52:06;;;;;;;3.15;2.17;;;;;;;25.50;51.75;98454.47;4153214;28;20236;-54
2022/07/29 08:54:09;;;;;;;2.92;1.77;;;;;;;25.93;52.25;98457.56;4158693;28;20200;-55
2022/07/29 08:56:18;;;;;;;5.13;1.73;;;;;;;25.64;49.81;98462.53;4152971;28;20325;-55
2022/07/29 08:58:21;;;;;;;4.00;2.20;;;;;;;26.00;51.42;98456.97;4151809;28;20685;-55
2022/07/29 09:00:25;;;;;;;6.88;2.05;;;;;;;25.68;50.97;98463.50;4152342;28;20204;-56
2022/07/29 09:02:35;;;;;;;2.47;2.00;;;;;;;25.57;50.94;98468.75;4153360;28;20215;-55
2022/07/29 09:04:37;;;;;;;7.82;2.05;;;;;;;25.18;51.11;98469.31;4159541;28;20277;-55
2022/07/29 09:06:43;;;;;;;3.55;2.63;;;;;;;25.08;51.86;98461.38;4170877;28;20211;-55
2022/07/29 09:08:45;;;;;;;3.92;2.35;;;;;;;24.96;51.44;98463.28;4157110;28;20200;-55
2022/07/29 09:10:47;;;;;;;4.07;2.20;;;;;;;24.97;51.96;98460.16;4171772;28;20253;-55
2022/07/29 09:12:49;;;;;;;3.72;2.35;;;;;;;24.98;52.06;98461.78;4156007;28;20232;-55
2022/07/29 09:14:51;;;;;;;2.42;2.15;;;;;;;24.81;52.81;98461.94;4156091;28;20207;-54
2022/07/29 09:16:55;;;;;;;3.85;2.17;;;;;;;24.67;52.18;98458.63;4157273;28;20624;-53
2022/07/29 09:18:57;;;;;;;9.98;2.08;;;;;;;25.15;51.84;98464.44;4159763;28;20212;-53
2022/07/29 09:23:20;;;;;;;5.05;2.80;;;;;;;25.79;49.95;98451.44;4155527;28;20234;-54
2022/07/29 09:25:34;;;;;;;3.03;1.85;;;;;;;25.75;49.87;98458.13;4155821;28;20259;-55
2022/07/29 09:27:36;;;;;;;4.07;2.35;;;;;;;26.04;51.02;98458.72;4171672;28;20587;-55
2022/07/29 09:29:38;;;;;;;2.40;1.80;;;;;;;26.68;50.29;98461.53;4155680;28;20258;-55
2022/07/29 09:31:42;;;;;;;6.70;1.77;;;;;;;27.03;48.75;98457.78;4158292;28;20220;-55
2022/07/29 09:33:44;;;;;;;4.72;2.30;;;;;;;27.22;49.45;98455.13;4159568;28;20216;-55
2022/07/29 09:35:45;;;;;;;3.38;1.85;;;;;;;27.15;47.30;98449.31;4155933;28;20208;-55
2022/07/29 09:37:57;;;;;;;2.55;2.35;;;;;;;26.31;48.13;98452.38;4159645;28;20208;-55
2022/07/29 09:39:59;;;;;;;3.85;2.05;;;;;;;26.32;49.51;98453.19;4154073;28;20293;-55
2022/07/29 09:42:06;;;;;;;4.13;1.77;;;;;;;26.29;48.98;98454.72;4140288;28;20229;-54
2022/07/29 09:44:07;;;;;;;3.65;3.00;;;;;;;25.93;48.95;98451.94;4155882;28;20216;-54
2022/07/29 09:46:13;;;;;;;2.72;2.03;;;;;;;26.01;49.70;98453.84;4155207;28;20219;-53
2022/07/29 09:48:22;;;;;;;3.67;2.58;;;;;;;25.99;50.04;98444.94;4159481;28;20200;-53
2022/07/29 09:50:37;;;;;;;2.45;1.80;;;;;;;26.09;50.07;98450.06;4170315;28;20347;-54
2022/07/29 09:52:50;;;;;;;4.07;2.05;;;;;;;26.23;50.02;98455.31;4154874;28;20690;-54